Camp Elliot (770) Station Data

Red Flag Warning: No
Fire Weather Zone: 243
SDGE Region: Beach Cities
Lat/Lon: 32.852/-117.118

Observations

Time Wind Speed/Gust Temp(F) RH Fuel Moist Fuel Temp(F) Dewpt(F) Tmax(F) Tmin(F) Accum Precip 10-min Precip SL Press(mb)
2/27 11:40pm 263 9 G 14 51° 100% - - 51° 55.6° 49° - - -
2/27 11:20pm 263 9 G 12 52° 100% - - 52° 55.6° 49° - - -
2/27 11:10pm 265 7 G 11 52° 100% - - 52° 55.6° 49° - - -
2/27 11:00pm 271 5 G 8 53° 100% - - 53° 55.6° 49° - - -
2/27 10:50pm 269 6 G 9 53° 100% - - 53° 55.6° 49° - - -
2/27 10:40pm 299 5 G 9 53° 100% - - 53° 55.6° 49° - - -
2/27 10:30pm 290 6 G 10 53° 100% - - 53° 55.6° 49° - - -
2/27 10:20pm 296 5 G 9 53° 100% - - 53° 55.6° 49° - - -
2/27 10:10pm 292 6 G 10 53° 100% - - 53° 55.6° 49° - - -
2/27 10:00pm 296 5 G 9 53° 100% - - 53° 55.6° 49° - - -
2/27 9:50pm 298 6 G 9 53° 100% - - 53° 55.6° 49° - - -
2/27 9:40pm 242 7 G 14 54° 99% - - 54° 55.6° 49° - - -
2/27 9:30pm 238 12 G 17 54° 99% - - 54° 55.6° 49° - - -
2/27 9:20pm 187 14 G 21 55° 99% - - 54° 55.6° 49° - - -
2/27 9:10pm 178 15 G 24 55° 99% - - 54° 55.6° 49° - - -
2/27 9:00pm 189 12 G 20 55° 99% - - 55° 55.6° 49° - - -
2/27 8:50pm 190 11 G 24 55° 99% - - 55° 55.6° 49° - - -
2/27 8:40pm 192 11 G 19 55° 100% - - 54° 55.6° 49° - - -
2/27 8:30pm 194 12 G 20 54° 100% - - 54° 55.6° 49° - - -
2/27 8:20pm 198 11 G 18 54° 100% - - 54° 55.6° 49° - - -
2/27 8:10pm 191 14 G 23 54° 100% - - 54° 55.6° 49° - - -
2/27 8:00pm 187 13 G 22 54° 99% - - 54° 55.6° 49° - - -
2/27 7:50pm 183 12 G 21 55° 99% - - 55° 55.6° 49° - - -
2/27 7:40pm 193 15 G 21 55° 99% - - 55° 55.6° 49° - - -
2/27 7:30pm 202 13 G 24 55° 99% - - 55° 55.6° 49° - - -
2/27 7:20pm 191 15 G 28 55° 99% - - 55° 55.6° 49° - - -
2/27 7:10pm 197 12 G 23 55° 99% - - 55° 55.6° 49° - - -
2/27 7:00pm 195 11 G 20 55° 100% - - 55° 55.6° 49° - - -
2/27 6:50pm 201 9 G 17 55° 100% - - 55° 55.6° 49° - - -
2/27 6:40pm 203 10 G 17 55° 100% - - 55° 55.6° 49° - - -
2/27 6:30pm 203 10 G 18 55° 100% - - 55° 55.6° 49° - - -
2/27 6:20pm 196 10 G 16 55° 100% - - 55° 55.6° 49° - - -
2/27 6:10pm 192 11 G 17 55° 100% - - 55° 55.6° 49° - - -
2/27 6:00pm 196 9 G 16 55° 100% - - 55° 55.6° 49° - - -
2/27 5:50pm 202 9 G 17 55° 100% - - 55° 55.6° 49° - - -
2/27 5:40pm 207 11 G 19 55° 100% - - 55° 55.6° 49° - - -
2/27 5:30pm 217 11 G 21 55° 100% - - 55° 55.6° 49° - - -
2/27 5:20pm 210 10 G 18 55° 100% - - 55° 55.6° 49° - - -
2/27 5:10pm 198 10 G 20 55° 100% - - 55° 55.6° 49° - - -
2/27 5:00pm 199 11 G 24 55° 100% - - 55° 55.6° 49° - - -
2/27 4:50pm 195 13 G 22 55° 100% - - 55° 55.6° 49° - - -
2/27 4:40pm 184 14 G 24 55° 100% - - 55° 55.6° 49° - - -
2/27 4:30pm 186 13 G 21 55° 100% - - 55° 55.6° 49° - - -
2/27 4:20pm 189 15 G 26 55° 100% - - 55° 55.6° 49° - - -
2/27 4:10pm 194 15 G 24 55° 100% - - 55° 55.6° 49° - - -
2/27 4:00pm 192 15 G 25 55° 100% - - 55° 55.6° 49° - - -
2/27 3:50pm 185 15 G 27 55° 100% - - 55° 55.6° 49° - - -
2/27 3:40pm 184 14 G 23 55° 100% - - 55° 55.6° 49° - - -
2/27 3:30pm 187 12 G 19 55° 100% - - 55° 55.6° 49° - - -
2/27 3:20pm 186 12 G 18 55° 100% - - 55° 55.6° 49° - - -
2/27 3:10pm 180 13 G 22 55° 100% - - 55° 55.6° 49° - - -
2/27 3:00pm 175 15 G 27 55° 100% - - 55° 55.6° 49° - - -
2/27 2:50pm 176 14 G 22 55° 100% - - 55° 55.6° 49° - - -
2/27 2:40pm 175 15 G 24 55° 100% - - 55° 55.6° 49° - - -
2/27 2:30pm 186 14 G 20 55° 100% - - 55° 55.6° 49° - - -
2/27 2:20pm 187 15 G 23 55° 100% - - 55° 55.6° 49° - - -
2/27 2:10pm 191 13 G 24 55° 100% - - 55° 55.6° 49° - - -
2/27 2:00pm 189 13 G 23 55° 100% - - 55° 55.6° 49° - - -
2/27 1:50pm 193 13 G 21 55° 100% - - 55° 55.6° 49° - - -
2/27 1:40pm 204 13 G 21 55° 100% - - 55° 55.6° 49° - - -
2/27 1:30pm 193 14 G 24 55° 100% - - 55° 55.6° 49° - - -
2/27 1:20pm 193 15 G 22 55° 100% - - 55° 55.6° 49° - - -
2/27 1:10pm 196 14 G 22 55° 100% - - 55° 55.6° 49° - - -
2/27 1:00pm 186 16 G 27 55° 100% - - 55° 55.6° 49° - - -
2/27 12:50pm 190 16 G 27 55° 100% - - 55° 55.6° 49° - - -
2/27 12:40pm 187 15 G 26 55° 100% - - 55° 55.6° 49° - - -
2/27 12:30pm 193 16 G 24 55° 100% - - 55° 55.6° 49° - - -
2/27 12:20pm 194 13 G 21 55° 100% - - 55° 55.6° 49° - - -
2/27 12:10pm 204 13 G 25 55° 100% - - 55° 55.6° 49° - - -
2/27 12:00pm 198 14 G 24 55° 100% - - 55° 55.6° 49° - - -
2/27 11:50am 191 16 G 30 55° 100% - - 55° 55.6° 49° - - -
2/27 11:40am 182 14 G 24 55° 100% - - 55° 55.6° 49° - - -
2/27 11:30am 186 12 G 21 55° 100% - - 55° 55.6° 49° - - -
2/27 11:20am 190 13 G 23 54° 99% - - 54° 55.6° 49° - - -
2/27 11:10am 184 14 G 23 54° 99% - - 54° 55.6° 49° - - -
2/27 11:00am 181 13 G 23 54° 99% - - 54° 55.6° 49° - - -
2/27 10:50am 181 15 G 26 54° 100% - - 54° 55.6° 49° - - -
2/27 10:40am 189 13 G 23 54° 100% - - 54° 55.6° 49° - - -
2/27 10:30am 192 12 G 21 54° 100% - - 54° 55.6° 49° - - -
2/27 10:20am 189 14 G 20 54° 99% - - 54° 55.6° 49° - - -
2/27 10:10am 191 15 G 26 55° 100% - - 55° 55.6° 49° - - -
2/27 10:00am 191 13 G 21 55° 100% - - 55° 55.6° 49° - - -
2/27 9:50am 189 14 G 23 55° 100% - - 55° 55.6° 49° - - -
2/27 9:40am 191 14 G 22 55° 100% - - 55° 55.6° 49° - - -
2/27 9:30am 194 11 G 20 55° 100% - - 55° 55.6° 49° - - -
2/27 9:20am 191 15 G 23 55° 100% - - 55° 55.6° 49° - - -
2/27 9:10am 193 13 G 24 55° 100% - - 55° 55.6° 49° - - -
2/27 9:00am 187 15 G 24 55° 100% - - 55° 55.6° 49° - - -
2/27 8:50am 195 13 G 20 55° 100% - - 55° 55.6° 49° - - -
2/27 8:40am 190 15 G 23 55° 100% - - 55° 55.6° 49° - - -
2/27 8:30am 190 14 G 23 55° 100% - - 55° 55.6° 49° - - -
2/27 8:20am 188 15 G 25 55° 100% - - 55° 55.6° 49° - - -
2/27 8:10am 186 11 G 21 55° 100% - - 55° 55.6° 49° - - -
2/27 8:00am 191 12 G 20 55° 100% - - 55° 55.6° 49° - - -
2/27 7:50am 189 13 G 22 55° 100% - - 55° 55.6° 49° - - -
2/27 7:40am 190 12 G 20 55° 100% - - 55° 55.6° 49° - - -
2/27 7:30am 189 10 G 16 55° 100% - - 55° 55.6° 49° - - -
2/27 7:20am 189 11 G 17 55° 100% - - 55° 55.6° 49° - - -
2/27 7:10am 188 12 G 19 55° 100% - - 55° 55.6° 49° - - -
2/27 7:00am 189 12 G 22 55° 100% - - 55° 55.6° 49° - - -
2/27 6:50am 194 11 G 20 55° 100% - - 55° 55.6° 49° - - -
2/27 6:40am 192 11 G 20 55° 100% - - 55° 55.6° 49° - - -
2/27 6:30am 194 13 G 22 55° 100% - - 55° 55.6° 49° - - -
2/27 6:20am 194 12 G 22 55° 100% - - 55° 55.6° 49° - - -
2/27 6:10am 189 14 G 22 55° 100% - - 55° 55.6° 49° - - -
2/27 6:00am 185 13 G 22 55° 100% - - 55° 55.4° 49° - - -
2/27 5:50am 191 11 G 21 55° 100% - - 55° 55.4° 49° - - -
2/27 5:40am 188 11 G 16 55° 100% - - 55° 55.2° 49° - - -
2/27 5:30am 186 11 G 18 55° 100% - - 55° 55.2° 49° - - -
2/27 5:20am 190 10 G 19 55° 100% - - 55° 55.2° 49° - - -
2/27 5:10am 187 9 G 16 54° 100% - - 54° 54.9° 49° - - -
2/27 5:00am 161 6 G 11 53° 100% - - 53° 53.7° 49° - - -
2/27 4:50am 162 7 G 11 53° 100% - - 53° 53.2° 49° - - -
2/27 4:40am 158 7 G 12 53° 100% - - 53° 52.9° 49° - - -
2/27 4:30am 153 8 G 11 53° 100% - - 53° 52.8° 49° - - -
2/27 4:20am 154 8 G 12 52° 100% - - 52° 52.6° 49° - - -
2/27 4:10am 153 5 G 11 52° 100% - - 52° 52.5° 49° - - -
2/27 4:00am 125 4 G 7 51° 100% - - 51° 51.7° 49° - - -
2/27 3:50am 112 5 G 8 51° 100% - - 51° 51.7° 49° - - -
2/27 3:40am 106 6 G 9 51° 100% - - 51° 51.7° 49° - - -
2/27 3:30am 96 4 G 7 51° 100% - - 51° 51.3° 49° - - -
2/27 3:20am 76 4 G 6 50° 100% - - 50° 50.6° 49° - - -
2/27 3:10am 77 5 G 8 50° 100% - - 50° 50.3° 49° - - -
2/27 3:00am 77 6 G 8 50° 99% - - 50° 50.2° 49° - - -
2/27 2:50am 64 4 G 6 50° 99% - - 50° 50.2° 49° - - -
2/27 2:40am 55 4 G 6 50° 99% - - 50° 50.2° 49° - - -
2/27 2:30am 60 4 G 7 50° 99% - - 50° 50.1° 49° - - -
2/27 2:20am 75 5 G 7 50° 99% - - 50° 49.9° 49° - - -
2/27 2:10am 79 5 G 7 50° 99% - - 49° 49.8° 49° - - -
2/27 2:00am 82 5 G 7 50° 99% - - 49° 49.8° 49° - - -
2/27 1:50am 86 5 G 7 49° 99% - - 49° 49.7° 49° - - -
2/27 1:40am 81 4 G 7 49° 99% - - 49° 49.6° 49° - - -
2/27 1:30am 88 5 G 8 49° 99% - - 49° 49.6° 49° - - -
2/27 1:20am 88 6 G 9 49° 99% - - 49° 49.6° 49° - - -
2/27 1:10am 85 5 G 8 49° 99% - - 49° 49.6° 49° - - -
2/27 1:00am 82 5 G 7 49° 99% - - 49° 49.6° 49° - - -
2/27 12:50am 78 4 G 6 49° 99% - - 49° 49.6° 49° - - -
2/27 12:40am 76 4 G 5 49° 98% - - 49° 49.5° 49° - - -
2/27 12:30am 71 4 G 6 49° 97% - - 48° 49.5° 49° - - -
2/27 12:20am 67 4 G 6 49° 97% - - 48° 49.5° 49° - - -
2/27 12:10am 62 4 G 6 49° 96% - - 48° 49.4° 49° - - -
2/27 12:00am 71 5 G 7 49° 96% - - 48° 57.1° 47.1° - - -
2/26 11:50pm 74 5 G 8 49° 96% - - 48° 57.1° 47.1° - - -
2/26 11:40pm 72 5 G 6 49° 96% - - 48° 57.1° 47.1° - - -
2/26 11:30pm 74 4 G 8 49° 95% - - 48° 57.1° 47.1° - - -
2/26 11:20pm 72 2 G 3 49° 92% - - 47° 57.1° 47.1° - - -
2/26 11:10pm 72 2 G 4 49° 84% - - 45° 57.1° 47.1° - - -
2/26 11:00pm 81 1 G 3 50° 81% - - 44° 57.1° 47.1° - - -
2/26 10:50pm 68 3 G 4 49° 80% - - 44° 57.1° 47.1° - - -
2/26 10:40pm 75 2 G 4 49° 80% - - 43° 57.1° 47.1° - - -
2/26 10:30pm 67 3 G 4 49° 80% - - 43° 57.1° 47.1° - - -
2/26 10:20pm 67 4 G 6 48° 80% - - 43° 57.1° 47.1° - - -
2/26 10:10pm 65 3 G 5 48° 81% - - 42° 57.1° 47.1° - - -
2/26 10:00pm 51 3 G 4 48° 81% - - 42° 57.1° 47.1° - - -
2/26 9:50pm 55 4 G 5 48° 82% - - 42° 57.1° 47.1° - - -
2/26 9:40pm 50 4 G 5 47° 81% - - 42° 57.1° 47.1° - - -
2/26 9:30pm 45 4 G 5 48° 80% - - 42° 57.1° 47.2° - - -
2/26 9:20pm 57 3 G 4 48° 80% - - 42° 57.1° 47.5° - - -
2/26 9:10pm 58 2 G 4 48° 79% - - 42° 57.1° 47.5° - - -
2/26 9:00pm 88 2 G 3 48° 77% - - 41° 57.1° 47.6° - - -
2/26 8:50pm 33 4 G 5 49° 76% - - 41° 57.1° 48.3° - - -
2/26 8:40pm 12 4 G 6 50° 74% - - 41° 57.1° 48.3° - - -
2/26 8:30pm 17 2 G 3 50° 72% - - 42° 57.1° 48.3° - - -
2/26 8:20pm 334 2 G 2 51° 72% - - 42° 57.1° 48.3° - - -
2/26 8:10pm 312 2 G 3 50° 72% - - 42° 57.1° 48.3° - - -
2/26 8:00pm 313 2 G 2 50° 72% - - 42° 57.1° 48.3° - - -
2/26 7:50pm 300 1 G 2 51° 72% - - 42° 57.1° 48.3° - - -
2/26 7:40pm 289 2 G 3 51° 72% - - 42° 57.1° 48.3° - - -
2/26 7:30pm 301 3 G 4 51° 73% - - 42° 57.1° 48.3° - - -
2/26 7:20pm 284 2 G 3 51° 73% - - 43° 57.1° 48.3° - - -
2/26 7:10pm 289 3 G 4 51° 73% - - 43° 57.1° 48.3° - - -
2/26 7:00pm 285 3 G 4 51° 73% - - 43° 57.1° 48.3° - - -
2/26 6:50pm 273 3 G 4 51° 74% - - 43° 57.1° 48.3° - - -
2/26 6:40pm 272 4 G 5 51° 74% - - 43° 57.1° 48.3° - - -
2/26 6:30pm 260 4 G 6 52° 73% - - 43° 57.1° 48.3° - - -
2/26 6:20pm 248 5 G 7 52° 74% - - 44° 57.1° 48.3° - - -
2/26 6:10pm 250 6 G 9 52° 74% - - 44° 57.1° 48.3° - - -
2/26 6:00pm 250 5 G 8 53° 74% - - 45° 57.1° 48.3° - - -
2/26 5:50pm 253 5 G 8 53° 73% - - 45° 57.1° 48.3° - - -
2/26 5:40pm 243 7 G 10 54° 71% - - 44° 57.1° 48.3° - - -
2/26 5:30pm 248 7 G 11 54° 68% - - 44° 57.1° 48.3° - - -
2/26 5:20pm 250 6 G 9 55° 67% - - 44° 57.1° 48.3° - - -
2/26 5:10pm 233 6 G 11 55° 65% - - 44° 57.1° 48.3° - - -
2/26 5:00pm 209 7 G 11 55° 69% - - 46° 57.1° 48.3° - - -